CheckWX is a tool to help pilots better visualize weather data.  It is not intended as a substitute for an official pre-flight weather briefing.

18:54:29 UTC

KPVD TAF
Theodore Francis Green State Airport
Providence, Rhode Island, USA
KPVD 211736Z 2118/2218 34005KT P6SM SKC FM212000 30004KT P6SM SKC FM212100 27003KT P6SM SKC FM220400 21003KT P6SM BKN120 FM221300 22010G25KT P6SM BKN050 FM221700 23012G30KT P6SM VCSH BKN045

Nov-21@
18:00 UTC

Nov-21 @ 18:00 UTC

Nov-21@
20:00 UTC

Nov-21 @ 20:00 UTC

KPVD 211736Z 2118/2218 34005KT P6SM SKC
Wind
  • 340° at 5 KTS
Cloud Levels
  • Clear skies

Nov-21@
20:00 UTC

Nov-21 @ 20:00 UTC

Nov-21@
21:00 UTC

Nov-21 @ 21:00 UTC

FM212000 30004KT P6SM SKC

From

From Standard forecast or significant change

Wind
  • 300° at 4 KTS
Cloud Levels
  • Clear skies

Nov-21@
21:00 UTC

Nov-21 @ 21:00 UTC

Nov-22@
04:00 UTC

Nov-22 @ 04:00 UTC

FM212100 27003KT P6SM SKC

From

From Standard forecast or significant change

Wind
  • 270° at 3 KTS
Cloud Levels
  • Clear skies

Nov-22@
04:00 UTC

Nov-22 @ 04:00 UTC

Nov-22@
13:00 UTC

Nov-22 @ 13:00 UTC

FM220400 21003KT P6SM BKN120

From

From Standard forecast or significant change

Wind
  • 210° at 3 KTS
Cloud Levels
  • Broken at 12,000' AGL

Nov-22@
13:00 UTC

Nov-22 @ 13:00 UTC

Nov-22@
17:00 UTC

Nov-22 @ 17:00 UTC

FM221300 22010G25KT P6SM BKN050

From

From Standard forecast or significant change

Wind
  • 220° at 10 KTS
  • {Gusting to 25 KTS
Cloud Levels
  • Broken at 5,000' AGL

Nov-22@
17:00 UTC

Nov-22 @ 17:00 UTC

Nov-22@
18:00 UTC

Nov-22 @ 18:00 UTC

FM221700 23012G30KT P6SM VCSH BKN045

From

From Standard forecast or significant change

Wind
  • 230° at 12 KTS
  • {Gusting to 30 KTS
Cloud Levels
  • Broken at 4,500' AGL